Terminal Aerodrome Forecast
Issued by NWS Charleston, WV

Current Version | Previous Version | Graphics & Text | Print | Product List | Glossary On
Versions: 1 2 3 4 5 6 7 8 9 10 11 12 13 14 15 16 17 18 19 20 21 22 23
000
FTUS41 KRLX 271400 AAA
TAFEKN
TAF AMD
KEKN 271430Z 2714/2812 VRB03KT P6SM SCT250
     FM280500 00000KT 6SM BR SCT250
     FM280700 00000KT 3SM BR SCT250
     FM280800 00000KT 1/2SM FG VV001
     FM281100 00000KT 3SM BR SCT250=

USA.gov is the U.S. government's official web portal to all federal, state and local government web resources and services.